sensor_id;sensor_type;location;lat;lon;timestamp;temperature;humidity
32614;DHT22;19031;51.400;6.770;2024-01-06T00:01:28;7.30;99.90
32614;DHT22;19031;51.400;6.770;2024-01-06T00:03:54;7.30;99.90
32614;DHT22;19031;51.400;6.770;2024-01-06T00:06:20;7.30;99.90
32614;DHT22;19031;51.400;6.770;2024-01-06T00:08:46;7.30;99.90
32614;DHT22;19031;51.400;6.770;2024-01-06T00:11:12;7.30;99.90
32614;DHT22;19031;51.400;6.770;2024-01-06T00:13:37;7.30;99.90
32614;DHT22;19031;51.400;6.770;2024-01-06T00:16:03;7.30;99.90
32614;DHT22;19031;51.400;6.770;2024-01-06T00:18:28;7.30;99.90
32614;DHT22;19031;51.400;6.770;2024-01-06T00:20:54;7.30;99.90
32614;DHT22;19031;51.400;6.770;2024-01-06T00:23:19;7.30;99.90
32614;DHT22;19031;51.400;6.770;2024-01-06T00:25:45;7.20;99.90
32614;DHT22;19031;51.400;6.770;2024-01-06T00:28:10;7.30;99.90
32614;DHT22;19031;51.400;6.770;2024-01-06T00:30:36;7.30;99.90
32614;DHT22;19031;51.400;6.770;2024-01-06T00:33:02;7.20;99.90
32614;DHT22;19031;51.400;6.770;2024-01-06T00:35:27;7.20;99.90
32614;DHT22;19031;51.400;6.770;2024-01-06T00:37:53;7.20;99.90
32614;DHT22;19031;51.400;6.770;2024-01-06T00:40:18;7.30;99.90
32614;DHT22;19031;51.400;6.770;2024-01-06T00:42:45;7.40;99.90
32614;DHT22;19031;51.400;6.770;2024-01-06T00:45:10;7.30;99.90
32614;DHT22;19031;51.400;6.770;2024-01-06T00:47:36;7.40;99.90
32614;DHT22;19031;51.400;6.770;2024-01-06T00:50:01;7.30;99.90
32614;DHT22;19031;51.400;6.770;2024-01-06T00:52:27;7.30;99.90
32614;DHT22;19031;51.400;6.770;2024-01-06T00:54:53;7.30;99.90
32614;DHT22;19031;51.400;6.770;2024-01-06T00:57:18;7.30;99.90
32614;DHT22;19031;51.400;6.770;2024-01-06T00:59:49;7.30;99.90
32614;DHT22;19031;51.400;6.770;2024-01-06T01:02:15;7.30;99.90
32614;DHT22;19031;51.400;6.770;2024-01-06T01:04:40;7.30;99.90
32614;DHT22;19031;51.400;6.770;2024-01-06T01:07:06;7.40;99.90
32614;DHT22;19031;51.400;6.770;2024-01-06T01:09:31;7.40;99.90
32614;DHT22;19031;51.400;6.770;2024-01-06T01:11:57;7.40;99.90
32614;DHT22;19031;51.400;6.770;2024-01-06T01:14:22;7.40;99.90
32614;DHT22;19031;51.400;6.770;2024-01-06T01:16:48;7.40;99.90
32614;DHT22;19031;51.400;6.770;2024-01-06T01:19:14;7.30;99.90
32614;DHT22;19031;51.400;6.770;2024-01-06T01:21:39;7.40;99.90
32614;DHT22;19031;51.400;6.770;2024-01-06T01:24:05;7.40;99.90
32614;DHT22;19031;51.400;6.770;2024-01-06T01:26:31;7.40;99.90
32614;DHT22;19031;51.400;6.770;2024-01-06T01:28:56;7.40;99.90
32614;DHT22;19031;51.400;6.770;2024-01-06T01:31:22;7.50;99.90
32614;DHT22;19031;51.400;6.770;2024-01-06T01:33:47;7.40;99.90
32614;DHT22;19031;51.400;6.770;2024-01-06T01:36:13;7.40;99.90
32614;DHT22;19031;51.400;6.770;2024-01-06T01:38:38;7.30;99.90
32614;DHT22;19031;51.400;6.770;2024-01-06T01:41:04;7.40;99.90
32614;DHT22;19031;51.400;6.770;2024-01-06T01:43:29;7.50;99.90
32614;DHT22;19031;51.400;6.770;2024-01-06T01:45:56;7.50;99.90
32614;DHT22;19031;51.400;6.770;2024-01-06T01:48:22;7.40;99.90
32614;DHT22;19031;51.400;6.770;2024-01-06T01:50:49;7.30;99.90
32614;DHT22;19031;51.400;6.770;2024-01-06T01:53:15;7.40;99.90
32614;DHT22;19031;51.400;6.770;2024-01-06T01:55:42;7.30;99.90
32614;DHT22;19031;51.400;6.770;2024-01-06T01:58:10;7.40;99.90
32614;DHT22;19031;51.400;6.770;2024-01-06T02:00:37;7.30;99.90
32614;DHT22;19031;51.400;6.770;2024-01-06T02:03:05;7.30;99.90
32614;DHT22;19031;51.400;6.770;2024-01-06T02:05:30;7.30;99.90
32614;DHT22;19031;51.400;6.770;2024-01-06T02:07:56;7.20;99.90
32614;DHT22;19031;51.400;6.770;2024-01-06T02:10:22;7.30;99.90
32614;DHT22;19031;51.400;6.770;2024-01-06T02:12:48;7.30;99.90
32614;DHT22;19031;51.400;6.770;2024-01-06T02:15:14;7.30;99.90
32614;DHT22;19031;51.400;6.770;2024-01-06T02:17:40;7.30;99.90
32614;DHT22;19031;51.400;6.770;2024-01-06T02:20:07;7.30;99.90
32614;DHT22;19031;51.400;6.770;2024-01-06T02:22:35;7.20;99.90
32614;DHT22;19031;51.400;6.770;2024-01-06T02:25:01;7.30;99.90
32614;DHT22;19031;51.400;6.770;2024-01-06T02:27:27;7.20;99.90
32614;DHT22;19031;51.400;6.770;2024-01-06T02:29:53;7.30;99.90
32614;DHT22;19031;51.400;6.770;2024-01-06T02:32:18;7.30;99.90
32614;DHT22;19031;51.400;6.770;2024-01-06T02:34:44;7.20;99.90
32614;DHT22;19031;51.400;6.770;2024-01-06T02:37:09;7.30;99.90
32614;DHT22;19031;51.400;6.770;2024-01-06T02:39:35;7.30;99.90
32614;DHT22;19031;51.400;6.770;2024-01-06T02:42:00;7.30;99.90
32614;DHT22;19031;51.400;6.770;2024-01-06T02:44:26;7.30;99.90
32614;DHT22;19031;51.400;6.770;2024-01-06T02:46:51;7.30;99.90
32614;DHT22;19031;51.400;6.770;2024-01-06T02:49:17;7.20;99.90
32614;DHT22;19031;51.400;6.770;2024-01-06T02:51:43;7.20;99.90
32614;DHT22;19031;51.400;6.770;2024-01-06T02:54:08;7.20;99.90
32614;DHT22;19031;51.400;6.770;2024-01-06T02:56:34;7.20;99.90
32614;DHT22;19031;51.400;6.770;2024-01-06T02:58:59;7.30;99.90
32614;DHT22;19031;51.400;6.770;2024-01-06T03:01:25;7.20;99.90
32614;DHT22;19031;51.400;6.770;2024-01-06T03:03:50;7.30;99.90
32614;DHT22;19031;51.400;6.770;2024-01-06T03:06:16;7.30;99.90
32614;DHT22;19031;51.400;6.770;2024-01-06T03:08:41;7.30;99.90
32614;DHT22;19031;51.400;6.770;2024-01-06T03:11:07;7.30;99.90
32614;DHT22;19031;51.400;6.770;2024-01-06T03:13:32;7.20;99.90
32614;DHT22;19031;51.400;6.770;2024-01-06T03:16:03;7.10;99.90
32614;DHT22;19031;51.400;6.770;2024-01-06T03:18:28;6.80;99.90
32614;DHT22;19031;51.400;6.770;2024-01-06T03:20:54;6.70;99.90
32614;DHT22;19031;51.400;6.770;2024-01-06T03:23:19;6.60;99.90
32614;DHT22;19031;51.400;6.770;2024-01-06T03:25:45;6.60;99.90
32614;DHT22;19031;51.400;6.770;2024-01-06T03:28:10;6.60;99.90
32614;DHT22;19031;51.400;6.770;2024-01-06T03:30:36;6.40;99.90
32614;DHT22;19031;51.400;6.770;2024-01-06T03:33:01;6.50;99.90
32614;DHT22;19031;51.400;6.770;2024-01-06T03:35:27;6.30;99.90
32614;DHT22;19031;51.400;6.770;2024-01-06T03:37:53;6.30;99.90
32614;DHT22;19031;51.400;6.770;2024-01-06T03:40:18;6.20;99.90
32614;DHT22;19031;51.400;6.770;2024-01-06T03:42:44;6.20;99.90
32614;DHT22;19031;51.400;6.770;2024-01-06T03:45:09;6.20;99.90
32614;DHT22;19031;51.400;6.770;2024-01-06T03:47:35;6.10;99.90
32614;DHT22;19031;51.400;6.770;2024-01-06T03:50:04;6.20;99.90
32614;DHT22;19031;51.400;6.770;2024-01-06T03:52:30;6.20;99.90
32614;DHT22;19031;51.400;6.770;2024-01-06T03:54:55;6.10;99.90
32614;DHT22;19031;51.400;6.770;2024-01-06T03:57:21;6.10;99.90
32614;DHT22;19031;51.400;6.770;2024-01-06T03:59:46;6.00;99.90
32614;DHT22;19031;51.400;6.770;2024-01-06T04:02:12;6.00;99.90
32614;DHT22;19031;51.400;6.770;2024-01-06T04:04:37;6.00;99.90
32614;DHT22;19031;51.400;6.770;2024-01-06T04:07:03;6.00;99.90
32614;DHT22;19031;51.400;6.770;2024-01-06T04:09:28;6.00;99.90
32614;DHT22;19031;51.400;6.770;2024-01-06T04:11:54;5.90;99.90
32614;DHT22;19031;51.400;6.770;2024-01-06T04:14:20;5.90;99.90
32614;DHT22;19031;51.400;6.770;2024-01-06T04:16:45;5.90;99.90
32614;DHT22;19031;51.400;6.770;2024-01-06T04:19:11;6.00;99.90
32614;DHT22;19031;51.400;6.770;2024-01-06T04:21:38;6.00;99.90
32614;DHT22;19031;51.400;6.770;2024-01-06T04:24:04;5.90;99.90
32614;DHT22;19031;51.400;6.770;2024-01-06T04:26:29;5.90;99.90
32614;DHT22;19031;51.400;6.770;2024-01-06T04:28:55;6.00;99.90
32614;DHT22;19031;51.400;6.770;2024-01-06T04:31:20;6.00;99.90
32614;DHT22;19031;51.400;6.770;2024-01-06T04:33:46;6.00;99.90
32614;DHT22;19031;51.400;6.770;2024-01-06T04:36:11;5.90;99.90
32614;DHT22;19031;51.400;6.770;2024-01-06T04:38:37;6.00;99.90
32614;DHT22;19031;51.400;6.770;2024-01-06T04:41:03;5.90;99.90
32614;DHT22;19031;51.400;6.770;2024-01-06T04:43:28;6.00;99.90
32614;DHT22;19031;51.400;6.770;2024-01-06T04:45:54;6.00;99.90
32614;DHT22;19031;51.400;6.770;2024-01-06T04:48:19;6.00;99.90
32614;DHT22;19031;51.400;6.770;2024-01-06T04:50:45;6.10;99.90
32614;DHT22;19031;51.400;6.770;2024-01-06T04:53:10;5.90;99.90
32614;DHT22;19031;51.400;6.770;2024-01-06T04:55:36;6.00;99.90
32614;DHT22;19031;51.400;6.770;2024-01-06T04:58:02;5.90;99.90
32614;DHT22;19031;51.400;6.770;2024-01-06T05:00:27;5.90;99.90
32614;DHT22;19031;51.400;6.770;2024-01-06T05:02:53;6.00;99.90
32614;DHT22;19031;51.400;6.770;2024-01-06T05:05:18;5.90;99.90
32614;DHT22;19031;51.400;6.770;2024-01-06T05:07:44;6.00;99.90
32614;DHT22;19031;51.400;6.770;2024-01-06T05:10:10;6.00;99.90
32614;DHT22;19031;51.400;6.770;2024-01-06T05:12:35;6.00;99.90
32614;DHT22;19031;51.400;6.770;2024-01-06T05:15:01;6.00;99.90
32614;DHT22;19031;51.400;6.770;2024-01-06T05:17:26;5.90;99.90
32614;DHT22;19031;51.400;6.770;2024-01-06T05:19:52;6.00;99.90
32614;DHT22;19031;51.400;6.770;2024-01-06T05:22:17;5.80;99.90
32614;DHT22;19031;51.400;6.770;2024-01-06T05:24:43;5.80;99.90
32614;DHT22;19031;51.400;6.770;2024-01-06T05:27:08;5.70;99.90
32614;DHT22;19031;51.400;6.770;2024-01-06T05:29:34;5.70;99.90
32614;DHT22;19031;51.400;6.770;2024-01-06T05:31:59;5.70;99.90
32614;DHT22;19031;51.400;6.770;2024-01-06T05:34:25;5.70;99.90
32614;DHT22;19031;51.400;6.770;2024-01-06T05:36:50;5.70;99.90
32614;DHT22;19031;51.400;6.770;2024-01-06T05:39:16;5.60;99.90
32614;DHT22;19031;51.400;6.770;2024-01-06T05:41:42;5.60;99.90
32614;DHT22;19031;51.400;6.770;2024-01-06T05:44:08;5.60;99.90
32614;DHT22;19031;51.400;6.770;2024-01-06T05:46:35;5.60;99.90
32614;DHT22;19031;51.400;6.770;2024-01-06T05:49:00;5.60;99.90
32614;DHT22;19031;51.400;6.770;2024-01-06T05:51:26;5.60;99.90
32614;DHT22;19031;51.400;6.770;2024-01-06T05:53:52;5.70;99.90
32614;DHT22;19031;51.400;6.770;2024-01-06T05:56:26;5.70;99.90
32614;DHT22;19031;51.400;6.770;2024-01-06T05:58:53;5.60;99.90
32614;DHT22;19031;51.400;6.770;2024-01-06T06:01:19;5.60;99.90
32614;DHT22;19031;51.400;6.770;2024-01-06T06:03:46;5.60;99.90
32614;DHT22;19031;51.400;6.770;2024-01-06T06:06:12;5.60;99.90
32614;DHT22;19031;51.400;6.770;2024-01-06T06:08:39;5.50;99.90
32614;DHT22;19031;51.400;6.770;2024-01-06T06:11:05;5.50;99.90
32614;DHT22;19031;51.400;6.770;2024-01-06T06:13:37;5.60;99.90
32614;DHT22;19031;51.400;6.770;2024-01-06T06:16:04;5.50;99.90
32614;DHT22;19031;51.400;6.770;2024-01-06T06:18:29;5.50;99.90
32614;DHT22;19031;51.400;6.770;2024-01-06T06:20:55;5.50;99.90
32614;DHT22;19031;51.400;6.770;2024-01-06T06:23:20;5.40;99.90
32614;DHT22;19031;51.400;6.770;2024-01-06T06:25:46;5.40;99.90
32614;DHT22;19031;51.400;6.770;2024-01-06T06:28:11;5.40;99.90
32614;DHT22;19031;51.400;6.770;2024-01-06T06:30:37;5.40;99.90
32614;DHT22;19031;51.400;6.770;2024-01-06T06:33:02;5.40;99.90
32614;DHT22;19031;51.400;6.770;2024-01-06T06:35:28;5.40;99.90
32614;DHT22;19031;51.400;6.770;2024-01-06T06:37:53;5.50;99.90
32614;DHT22;19031;51.400;6.770;2024-01-06T06:40:19;5.40;99.90
32614;DHT22;19031;51.400;6.770;2024-01-06T06:42:45;5.50;99.90
32614;DHT22;19031;51.400;6.770;2024-01-06T06:45:10;5.40;99.90
32614;DHT22;19031;51.400;6.770;2024-01-06T06:47:38;5.40;99.90
32614;DHT22;19031;51.400;6.770;2024-01-06T06:50:04;5.40;99.90
32614;DHT22;19031;51.400;6.770;2024-01-06T06:52:30;5.40;99.90
32614;DHT22;19031;51.400;6.770;2024-01-06T06:54:56;5.40;99.90
32614;DHT22;19031;51.400;6.770;2024-01-06T06:57:21;5.30;99.90
32614;DHT22;19031;51.400;6.770;2024-01-06T06:59:47;5.30;99.90
32614;DHT22;19031;51.400;6.770;2024-01-06T07:02:13;5.40;99.90
32614;DHT22;19031;51.400;6.770;2024-01-06T07:04:38;5.30;99.90
32614;DHT22;19031;51.400;6.770;2024-01-06T07:07:04;5.30;99.90
32614;DHT22;19031;51.400;6.770;2024-01-06T07:09:29;5.30;99.90
32614;DHT22;19031;51.400;6.770;2024-01-06T07:11:55;5.30;99.90
32614;DHT22;19031;51.400;6.770;2024-01-06T07:14:20;5.20;99.90
32614;DHT22;19031;51.400;6.770;2024-01-06T07:16:46;5.30;99.90
32614;DHT22;19031;51.400;6.770;2024-01-06T07:19:12;5.20;99.90
32614;DHT22;19031;51.400;6.770;2024-01-06T07:21:37;5.20;99.90
32614;DHT22;19031;51.400;6.770;2024-01-06T07:24:03;5.20;99.90
32614;DHT22;19031;51.400;6.770;2024-01-06T07:26:29;5.20;99.90
32614;DHT22;19031;51.400;6.770;2024-01-06T07:28:55;5.10;99.90
32614;DHT22;19031;51.400;6.770;2024-01-06T07:31:20;5.10;99.90
32614;DHT22;19031;51.400;6.770;2024-01-06T07:33:46;5.30;99.90
32614;DHT22;19031;51.400;6.770;2024-01-06T07:36:12;5.30;99.90
32614;DHT22;19031;51.400;6.770;2024-01-06T07:38:37;5.20;99.90
32614;DHT22;19031;51.400;6.770;2024-01-06T07:41:03;5.20;99.90
32614;DHT22;19031;51.400;6.770;2024-01-06T07:43:30;5.30;99.90
32614;DHT22;19031;51.400;6.770;2024-01-06T07:45:56;5.20;99.90
32614;DHT22;19031;51.400;6.770;2024-01-06T07:48:22;5.20;99.90
32614;DHT22;19031;51.400;6.770;2024-01-06T07:50:47;5.10;99.90
32614;DHT22;19031;51.400;6.770;2024-01-06T07:53:13;5.10;99.90
32614;DHT22;19031;51.400;6.770;2024-01-06T07:55:41;5.00;99.90
32614;DHT22;19031;51.400;6.770;2024-01-06T07:58:07;5.00;99.90
32614;DHT22;19031;51.400;6.770;2024-01-06T08:00:32;5.10;99.90
32614;DHT22;19031;51.400;6.770;2024-01-06T08:02:58;4.90;99.90
32614;DHT22;19031;51.400;6.770;2024-01-06T08:05:23;4.90;99.90
32614;DHT22;19031;51.400;6.770;2024-01-06T08:07:50;4.90;99.90
32614;DHT22;19031;51.400;6.770;2024-01-06T08:10:16;4.90;99.90
32614;DHT22;19031;51.400;6.770;2024-01-06T08:12:42;5.00;99.90
32614;DHT22;19031;51.400;6.770;2024-01-06T08:15:08;5.00;99.90
32614;DHT22;19031;51.400;6.770;2024-01-06T08:17:34;5.10;99.90
32614;DHT22;19031;51.400;6.770;2024-01-06T08:20:01;5.10;99.90
32614;DHT22;19031;51.400;6.770;2024-01-06T08:22:26;5.10;99.90
32614;DHT22;19031;51.400;6.770;2024-01-06T08:24:52;5.00;99.90
32614;DHT22;19031;51.400;6.770;2024-01-06T08:27:17;5.00;99.90
32614;DHT22;19031;51.400;6.770;2024-01-06T08:29:43;5.00;99.90
32614;DHT22;19031;51.400;6.770;2024-01-06T08:32:09;5.10;99.90
32614;DHT22;19031;51.400;6.770;2024-01-06T08:34:35;5.10;99.90
32614;DHT22;19031;51.400;6.770;2024-01-06T08:37:01;5.00;99.90
32614;DHT22;19031;51.400;6.770;2024-01-06T08:39:26;5.00;99.90
32614;DHT22;19031;51.400;6.770;2024-01-06T08:41:52;5.10;99.90
32614;DHT22;19031;51.400;6.770;2024-01-06T08:44:17;5.10;99.90
32614;DHT22;19031;51.400;6.770;2024-01-06T08:46:43;5.10;99.90
32614;DHT22;19031;51.400;6.770;2024-01-06T08:49:08;5.20;99.90
32614;DHT22;19031;51.400;6.770;2024-01-06T08:51:34;5.10;99.90
32614;DHT22;19031;51.400;6.770;2024-01-06T08:54:01;5.00;99.90
32614;DHT22;19031;51.400;6.770;2024-01-06T08:56:28;5.10;99.90
32614;DHT22;19031;51.400;6.770;2024-01-06T08:58:54;5.00;99.90
32614;DHT22;19031;51.400;6.770;2024-01-06T09:01:20;5.00;99.90
32614;DHT22;19031;51.400;6.770;2024-01-06T09:03:45;4.90;99.90
32614;DHT22;19031;51.400;6.770;2024-01-06T09:06:11;4.80;99.90
32614;DHT22;19031;51.400;6.770;2024-01-06T09:08:37;4.80;99.90
32614;DHT22;19031;51.400;6.770;2024-01-06T09:11:03;4.80;99.90
32614;DHT22;19031;51.400;6.770;2024-01-06T09:13:28;4.90;99.90
32614;DHT22;19031;51.400;6.770;2024-01-06T09:15:54;4.90;99.90
32614;DHT22;19031;51.400;6.770;2024-01-06T09:18:19;4.90;99.90
32614;DHT22;19031;51.400;6.770;2024-01-06T09:20:45;4.90;99.90
32614;DHT22;19031;51.400;6.770;2024-01-06T09:23:13;4.90;99.90
32614;DHT22;19031;51.400;6.770;2024-01-06T09:25:38;4.90;99.90
32614;DHT22;19031;51.400;6.770;2024-01-06T09:28:05;4.90;99.90
32614;DHT22;19031;51.400;6.770;2024-01-06T09:30:31;4.90;99.90
32614;DHT22;19031;51.400;6.770;2024-01-06T09:32:56;4.80;99.90
32614;DHT22;19031;51.400;6.770;2024-01-06T09:35:22;5.00;99.90
32614;DHT22;19031;51.400;6.770;2024-01-06T09:37:48;4.80;99.90
32614;DHT22;19031;51.400;6.770;2024-01-06T09:40:21;4.90;99.90
32614;DHT22;19031;51.400;6.770;2024-01-06T09:42:48;4.90;99.90
32614;DHT22;19031;51.400;6.770;2024-01-06T09:45:13;4.70;99.90
32614;DHT22;19031;51.400;6.770;2024-01-06T09:47:40;4.60;99.90
32614;DHT22;19031;51.400;6.770;2024-01-06T09:50:08;4.70;99.90
32614;DHT22;19031;51.400;6.770;2024-01-06T09:52:39;4.60;99.90
32614;DHT22;19031;51.400;6.770;2024-01-06T09:55:10;4.70;99.90
32614;DHT22;19031;51.400;6.770;2024-01-06T09:57:36;4.70;99.90
32614;DHT22;19031;51.400;6.770;2024-01-06T10:00:03;4.70;99.90
32614;DHT22;19031;51.400;6.770;2024-01-06T10:02:30;4.70;99.90
32614;DHT22;19031;51.400;6.770;2024-01-06T10:04:57;4.70;99.90
32614;DHT22;19031;51.400;6.770;2024-01-06T10:07:25;4.70;99.90
32614;DHT22;19031;51.400;6.770;2024-01-06T10:09:54;4.60;99.90
32614;DHT22;19031;51.400;6.770;2024-01-06T10:12:25;4.70;99.90
32614;DHT22;19031;51.400;6.770;2024-01-06T10:14:54;4.70;99.90
32614;DHT22;19031;51.400;6.770;2024-01-06T10:17:19;4.70;99.90
32614;DHT22;19031;51.400;6.770;2024-01-06T10:19:46;4.60;99.90
32614;DHT22;19031;51.400;6.770;2024-01-06T10:22:13;4.60;99.90
32614;DHT22;19031;51.400;6.770;2024-01-06T10:24:39;4.40;99.90
32614;DHT22;19031;51.400;6.770;2024-01-06T10:27:05;4.50;99.90
32614;DHT22;19031;51.400;6.770;2024-01-06T10:29:30;4.50;99.90
32614;DHT22;19031;51.400;6.770;2024-01-06T10:31:56;4.40;99.90
32614;DHT22;19031;51.400;6.770;2024-01-06T10:34:23;4.40;99.90
32614;DHT22;19031;51.400;6.770;2024-01-06T10:36:49;4.50;99.90
32614;DHT22;19031;51.400;6.770;2024-01-06T10:39:15;4.40;99.90
32614;DHT22;19031;51.400;6.770;2024-01-06T10:41:41;4.40;99.90
32614;DHT22;19031;51.400;6.770;2024-01-06T10:44:09;4.50;99.90
32614;DHT22;19031;51.400;6.770;2024-01-06T10:46:36;4.50;99.90
32614;DHT22;19031;51.400;6.770;2024-01-06T10:49:02;4.50;99.90
32614;DHT22;19031;51.400;6.770;2024-01-06T10:51:32;4.50;99.90
32614;DHT22;19031;51.400;6.770;2024-01-06T10:54:01;4.60;99.90
32614;DHT22;19031;51.400;6.770;2024-01-06T10:56:26;4.50;99.90
32614;DHT22;19031;51.400;6.770;2024-01-06T10:58:54;4.60;99.90
32614;DHT22;19031;51.400;6.770;2024-01-06T11:01:23;4.50;99.90
32614;DHT22;19031;51.400;6.770;2024-01-06T11:03:50;4.50;99.90
32614;DHT22;19031;51.400;6.770;2024-01-06T11:06:16;4.50;99.90
32614;DHT22;19031;51.400;6.770;2024-01-06T11:08:53;4.50;99.90
32614;DHT22;19031;51.400;6.770;2024-01-06T11:11:22;4.50;99.90
32614;DHT22;19031;51.400;6.770;2024-01-06T11:13:49;4.40;99.90
32614;DHT22;19031;51.400;6.770;2024-01-06T11:16:33;4.40;99.90
32614;DHT22;19031;51.400;6.770;2024-01-06T11:18:59;4.30;99.90
32614;DHT22;19031;51.400;6.770;2024-01-06T11:21:24;4.30;99.90
32614;DHT22;19031;51.400;6.770;2024-01-06T11:24:10;4.50;99.90
32614;DHT22;19031;51.400;6.770;2024-01-06T11:26:39;4.20;99.90
32614;DHT22;19031;51.400;6.770;2024-01-06T11:29:07;4.20;99.90
32614;DHT22;19031;51.400;6.770;2024-01-06T11:31:33;4.20;99.90
32614;DHT22;19031;51.400;6.770;2024-01-06T11:34:25;4.00;99.90
32614;DHT22;19031;51.400;6.770;2024-01-06T11:36:51;4.10;99.90
32614;DHT22;19031;51.400;6.770;2024-01-06T11:39:37;4.10;99.90
32614;DHT22;19031;51.400;6.770;2024-01-06T11:42:06;4.10;99.90
32614;DHT22;19031;51.400;6.770;2024-01-06T11:44:34;4.10;99.90
32614;DHT22;19031;51.400;6.770;2024-01-06T11:47:02;4.10;99.90
32614;DHT22;19031;51.400;6.770;2024-01-06T11:49:28;4.10;99.90
32614;DHT22;19031;51.400;6.770;2024-01-06T11:51:54;4.00;99.90
32614;DHT22;19031;51.400;6.770;2024-01-06T11:54:21;3.90;99.90
32614;DHT22;19031;51.400;6.770;2024-01-06T11:56:47;4.00;99.90
32614;DHT22;19031;51.400;6.770;2024-01-06T11:59:13;3.90;99.90
32614;DHT22;19031;51.400;6.770;2024-01-06T12:01:39;4.00;99.90
32614;DHT22;19031;51.400;6.770;2024-01-06T12:04:05;3.90;99.90
32614;DHT22;19031;51.400;6.770;2024-01-06T12:06:32;3.80;99.90
32614;DHT22;19031;51.400;6.770;2024-01-06T12:09:07;3.90;99.90
32614;DHT22;19031;51.400;6.770;2024-01-06T12:11:33;3.90;99.90
32614;DHT22;19031;51.400;6.770;2024-01-06T12:13:58;3.80;99.90
32614;DHT22;19031;51.400;6.770;2024-01-06T12:16:24;4.00;99.90
32614;DHT22;19031;51.400;6.770;2024-01-06T12:18:56;3.90;99.90
32614;DHT22;19031;51.400;6.770;2024-01-06T12:21:23;3.90;99.90
32614;DHT22;19031;51.400;6.770;2024-01-06T12:23:49;3.90;99.90
32614;DHT22;19031;51.400;6.770;2024-01-06T12:26:16;4.00;99.90
32614;DHT22;19031;51.400;6.770;2024-01-06T12:28:44;3.90;99.90
32614;DHT22;19031;51.400;6.770;2024-01-06T12:31:10;4.00;99.90
32614;DHT22;19031;51.400;6.770;2024-01-06T12:33:38;3.90;99.90
32614;DHT22;19031;51.400;6.770;2024-01-06T12:36:05;4.00;99.90
32614;DHT22;19031;51.400;6.770;2024-01-06T12:38:31;3.80;99.90
32614;DHT22;19031;51.400;6.770;2024-01-06T12:40:56;3.80;99.90
32614;DHT22;19031;51.400;6.770;2024-01-06T12:43:22;3.80;99.90
32614;DHT22;19031;51.400;6.770;2024-01-06T12:45:47;3.70;99.90
32614;DHT22;19031;51.400;6.770;2024-01-06T12:48:14;3.70;99.90
32614;DHT22;19031;51.400;6.770;2024-01-06T12:50:39;3.70;99.90
32614;DHT22;19031;51.400;6.770;2024-01-06T12:53:07;3.60;99.90
32614;DHT22;19031;51.400;6.770;2024-01-06T12:55:33;3.60;99.90
32614;DHT22;19031;51.400;6.770;2024-01-06T12:57:58;3.70;99.90
32614;DHT22;19031;51.400;6.770;2024-01-06T13:00:27;3.70;99.90
32614;DHT22;19031;51.400;6.770;2024-01-06T13:02:52;3.80;99.90
32614;DHT22;19031;51.400;6.770;2024-01-06T13:05:18;3.90;99.90
32614;DHT22;19031;51.400;6.770;2024-01-06T13:07:45;3.80;99.90
32614;DHT22;19031;51.400;6.770;2024-01-06T13:10:10;3.80;99.90
32614;DHT22;19031;51.400;6.770;2024-01-06T13:12:36;3.80;99.90
32614;DHT22;19031;51.400;6.770;2024-01-06T13:15:02;3.70;99.90
32614;DHT22;19031;51.400;6.770;2024-01-06T13:17:27;3.80;99.90
32614;DHT22;19031;51.400;6.770;2024-01-06T13:19:53;3.80;99.90
32614;DHT22;19031;51.400;6.770;2024-01-06T13:22:18;3.70;99.90
32614;DHT22;19031;51.400;6.770;2024-01-06T13:24:46;3.80;99.90
32614;DHT22;19031;51.400;6.770;2024-01-06T13:27:12;3.80;99.90
32614;DHT22;19031;51.400;6.770;2024-01-06T13:29:38;3.70;99.90
32614;DHT22;19031;51.400;6.770;2024-01-06T13:32:04;3.70;99.90
32614;DHT22;19031;51.400;6.770;2024-01-06T13:34:31;3.70;99.90
32614;DHT22;19031;51.400;6.770;2024-01-06T13:36:56;3.70;99.90
32614;DHT22;19031;51.400;6.770;2024-01-06T13:39:23;3.80;99.90
32614;DHT22;19031;51.400;6.770;2024-01-06T13:41:49;3.80;99.90
32614;DHT22;19031;51.400;6.770;2024-01-06T13:44:15;3.80;99.90
32614;DHT22;19031;51.400;6.770;2024-01-06T13:46:41;3.70;99.90
32614;DHT22;19031;51.400;6.770;2024-01-06T13:49:13;3.80;99.90
32614;DHT22;19031;51.400;6.770;2024-01-06T13:51:40;3.80;99.90
32614;DHT22;19031;51.400;6.770;2024-01-06T13:54:05;3.80;99.90
32614;DHT22;19031;51.400;6.770;2024-01-06T13:56:31;3.80;99.90
32614;DHT22;19031;51.400;6.770;2024-01-06T13:58:57;3.70;99.90
32614;DHT22;19031;51.400;6.770;2024-01-06T14:01:23;3.80;99.90
32614;DHT22;19031;51.400;6.770;2024-01-06T14:03:50;3.70;99.90
32614;DHT22;19031;51.400;6.770;2024-01-06T14:06:15;3.70;99.90
32614;DHT22;19031;51.400;6.770;2024-01-06T14:08:43;3.70;99.90
32614;DHT22;19031;51.400;6.770;2024-01-06T14:11:09;3.70;99.90
32614;DHT22;19031;51.400;6.770;2024-01-06T14:13:34;3.70;99.90
32614;DHT22;19031;51.400;6.770;2024-01-06T14:16:00;3.70;99.90
32614;DHT22;19031;51.400;6.770;2024-01-06T14:18:25;3.70;99.90
32614;DHT22;19031;51.400;6.770;2024-01-06T14:20:53;3.70;99.90
32614;DHT22;19031;51.400;6.770;2024-01-06T14:23:21;3.60;99.90
32614;DHT22;19031;51.400;6.770;2024-01-06T14:25:46;3.60;99.90
32614;DHT22;19031;51.400;6.770;2024-01-06T14:28:12;3.50;99.90
32614;DHT22;19031;51.400;6.770;2024-01-06T14:30:38;3.50;99.90
32614;DHT22;19031;51.400;6.770;2024-01-06T14:33:03;3.60;99.90
32614;DHT22;19031;51.400;6.770;2024-01-06T14:35:29;3.60;99.90
32614;DHT22;19031;51.400;6.770;2024-01-06T14:37:54;3.60;99.90
32614;DHT22;19031;51.400;6.770;2024-01-06T14:40:20;3.60;99.90
32614;DHT22;19031;51.400;6.770;2024-01-06T14:42:46;3.60;99.90
32614;DHT22;19031;51.400;6.770;2024-01-06T14:45:11;3.60;99.90
32614;DHT22;19031;51.400;6.770;2024-01-06T14:47:37;3.60;99.90
32614;DHT22;19031;51.400;6.770;2024-01-06T14:50:03;3.50;99.90
32614;DHT22;19031;51.400;6.770;2024-01-06T14:52:28;3.40;99.90
32614;DHT22;19031;51.400;6.770;2024-01-06T14:54:54;3.50;99.90
32614;DHT22;19031;51.400;6.770;2024-01-06T14:57:20;3.50;99.90
32614;DHT22;19031;51.400;6.770;2024-01-06T14:59:45;3.40;99.90
32614;DHT22;19031;51.400;6.770;2024-01-06T15:02:11;3.50;99.90
32614;DHT22;19031;51.400;6.770;2024-01-06T15:04:37;3.40;99.90
32614;DHT22;19031;51.400;6.770;2024-01-06T15:07:04;3.50;99.90
32614;DHT22;19031;51.400;6.770;2024-01-06T15:09:29;3.50;99.90
32614;DHT22;19031;51.400;6.770;2024-01-06T15:11:55;3.40;99.90
32614;DHT22;19031;51.400;6.770;2024-01-06T15:14:20;3.40;99.90
32614;DHT22;19031;51.400;6.770;2024-01-06T15:16:46;3.40;99.90
32614;DHT22;19031;51.400;6.770;2024-01-06T15:19:12;3.40;99.90
32614;DHT22;19031;51.400;6.770;2024-01-06T15:21:37;3.30;99.90
32614;DHT22;19031;51.400;6.770;2024-01-06T15:24:03;3.40;99.90
32614;DHT22;19031;51.400;6.770;2024-01-06T15:26:29;3.40;99.90
32614;DHT22;19031;51.400;6.770;2024-01-06T15:28:55;3.40;99.90
32614;DHT22;19031;51.400;6.770;2024-01-06T15:31:23;3.50;99.90
32614;DHT22;19031;51.400;6.770;2024-01-06T15:33:49;3.60;99.90
32614;DHT22;19031;51.400;6.770;2024-01-06T15:36:15;3.60;99.90
32614;DHT22;19031;51.400;6.770;2024-01-06T15:38:41;3.50;99.90